createdAt,value
2023-03-10T00:00:39.348Z,97.85
2023-03-10T00:01:42.153Z,97.55
2023-03-10T00:02:49.270Z,96.96
2023-03-10T00:03:54.207Z,96.61
2023-03-10T00:04:56.444Z,96.19
2023-03-10T00:05:59.465Z,96.39
2023-03-10T00:07:02.253Z,96.33
2023-03-10T00:08:04.361Z,96.37
2023-03-10T00:09:08.183Z,96.56
2023-03-10T00:10:11.532Z,96.63
2023-03-10T00:11:14.515Z,97.01
2023-03-10T00:12:16.300Z,97.70
2023-03-10T00:13:19.059Z,98.10
2023-03-10T00:14:21.029Z,98.87
2023-03-10T00:15:24.197Z,98.86
2023-03-10T00:16:27.573Z,99.37
2023-03-10T00:17:30.679Z,99.51
2023-03-10T00:18:32.531Z,99.81
2023-03-10T00:19:36.690Z,99.92
2023-03-10T00:20:38.675Z,99.93
2023-03-10T00:21:41.575Z,99.89
2023-03-10T00:22:43.348Z,100.00
2023-03-10T00:23:46.189Z,100.00
2023-03-10T00:24:48.071Z,100.00
2023-03-10T00:26:06.158Z,100.00
2023-03-10T00:27:08.324Z,99.93
2023-03-10T00:28:11.191Z,99.72
2023-03-10T00:29:13.253Z,99.23
2023-03-10T00:30:16.701Z,99.48
2023-03-10T00:31:20.579Z,99.08
2023-03-10T00:32:23.503Z,98.84
2023-03-10T00:33:25.711Z,98.64
2023-03-10T00:34:28.481Z,98.51
2023-03-10T00:35:31.699Z,98.88
2023-03-10T00:36:35.189Z,99.01
2023-03-10T00:37:38.245Z,98.62
2023-03-10T00:38:42.570Z,98.86
2023-03-10T00:39:44.557Z,98.82
2023-03-10T00:40:47.613Z,99.18
2023-03-10T00:41:49.453Z,98.96
2023-03-10T00:42:52.256Z,98.43
2023-03-10T00:43:54.279Z,98.64
2023-03-10T00:44:57.064Z,98.33
2023-03-10T00:45:59.709Z,98.21
2023-03-10T00:47:02.639Z,98.20
2023-03-10T00:48:04.582Z,98.06
2023-03-10T00:49:09.795Z,98.66
2023-03-10T00:50:12.139Z,98.76
2023-03-10T00:51:16.424Z,98.26
2023-03-10T00:52:18.285Z,98.47
2023-03-10T00:53:21.032Z,98.53
2023-03-10T00:54:22.889Z,98.88
2023-03-10T00:55:25.699Z,98.59
2023-03-10T00:56:29.361Z,98.92
2023-03-10T00:57:32.069Z,98.86
2023-03-10T00:58:34.325Z,98.80
2023-03-10T00:59:49.424Z,99.05
2023-03-10T01:00:52.027Z,98.82
2023-03-10T01:01:55.517Z,98.80
2023-03-10T01:02:58.392Z,98.98
2023-03-10T01:04:03.130Z,99.41
2023-03-10T01:05:06.540Z,99.10
2023-03-10T01:06:09.410Z,99.25
2023-03-10T01:07:13.580Z,99.54
2023-03-10T01:08:15.505Z,99.40
2023-03-10T01:09:18.867Z,99.67
2023-03-10T01:10:21.026Z,99.15
2023-03-10T01:11:26.879Z,99.40
2023-03-10T01:12:29.035Z,99.76
2023-03-10T01:13:32.006Z,99.43
2023-03-10T01:14:34.787Z,99.79
2023-03-10T01:15:36.617Z,99.95
2023-03-10T01:16:39.625Z,99.78
2023-03-10T01:17:41.996Z,100.00
2023-03-10T01:18:44.991Z,99.90
2023-03-10T01:19:46.810Z,99.60
2023-03-10T01:20:49.982Z,99.94
2023-03-10T01:21:51.837Z,99.81
2023-03-10T01:22:56.060Z,100.00
2023-03-10T01:23:59.272Z,100.00
2023-03-10T01:25:01.991Z,100.00
2023-03-10T01:26:03.896Z,100.00
2023-03-10T01:27:06.820Z,99.93
2023-03-10T01:28:09.126Z,99.91
2023-03-10T01:29:13.454Z,99.89
2023-03-10T01:30:16.085Z,100.00
2023-03-10T01:31:19.764Z,100.00
2023-03-10T01:32:21.946Z,100.00
2023-03-10T01:33:24.855Z,100.00
2023-03-10T01:34:27.190Z,100.00
2023-03-10T01:35:30.777Z,100.00
2023-03-10T01:36:32.733Z,100.00
2023-03-10T01:37:35.507Z,100.00
2023-03-10T01:38:39.027Z,100.00
2023-03-10T01:39:42.133Z,100.00
2023-03-10T01:40:48.110Z,100.00
2023-03-10T01:41:50.840Z,100.00
2023-03-10T01:42:52.725Z,100.00
2023-03-10T01:43:56.697Z,100.00
2023-03-10T01:45:07.441Z,100.00
2023-03-10T01:46:44.970Z,100.00
2023-03-10T01:47:52.771Z,100.00
2023-03-10T01:48:56.041Z,100.00
2023-03-10T01:50:00.304Z,100.00
2023-03-10T01:51:02.798Z,100.00
2023-03-10T01:52:11.059Z,100.00
2023-03-10T01:53:13.642Z,100.00
2023-03-10T01:54:22.464Z,100.00
2023-03-10T01:55:27.322Z,100.00
2023-03-10T01:56:30.111Z,99.83
2023-03-10T01:57:36.368Z,100.00
2023-03-10T01:58:40.194Z,100.00
2023-03-10T01:59:43.270Z,100.00
2023-03-10T02:00:45.133Z,100.00
2023-03-10T02:01:48.113Z,99.23
2023-03-10T02:02:54.450Z,99.84
2023-03-10T02:04:00.169Z,99.21
2023-03-10T02:05:02.611Z,98.52
2023-03-10T02:06:11.599Z,98.75
2023-03-10T02:07:13.961Z,98.16
2023-03-10T02:08:18.342Z,98.33
2023-03-10T02:09:22.061Z,98.06
2023-03-10T02:10:24.802Z,97.93
2023-03-10T02:11:27.988Z,97.47
2023-03-10T02:12:30.733Z,97.70
2023-03-10T02:13:34.194Z,97.62
2023-03-10T02:14:37.789Z,97.10
2023-03-10T02:15:40.169Z,97.11
2023-03-10T02:16:43.295Z,97.92
2023-03-10T02:17:46.368Z,97.82
2023-03-10T02:18:48.851Z,97.59
2023-03-10T02:20:09.922Z,96.81
2023-03-10T02:21:17.124Z,97.57
2023-03-10T02:22:20.015Z,96.76
2023-03-10T02:23:25.311Z,97.10
2023-03-10T02:24:34.865Z,97.03
2023-03-10T02:25:43.554Z,97.20
2023-03-10T02:26:50.274Z,97.21
2023-03-10T02:27:56.461Z,97.21
2023-03-10T02:28:58.970Z,96.49
2023-03-10T02:30:04.006Z,96.31
2023-03-10T02:31:10.097Z,96.37
2023-03-10T02:32:13.859Z,96.62
2023-03-10T02:33:19.270Z,96.14
2023-03-10T02:34:21.081Z,96.46
2023-03-10T02:35:24.194Z,96.34
2023-03-10T02:36:31.196Z,96.87
2023-03-10T02:37:52.487Z,96.22
2023-03-10T02:38:54.826Z,96.21
2023-03-10T02:39:57.838Z,95.41
2023-03-10T02:41:01.366Z,96.00
2023-03-10T02:42:06.438Z,95.60
2023-03-10T02:43:16.094Z,95.47
2023-03-10T02:44:21.614Z,95.45
2023-03-10T02:45:25.281Z,94.82
2023-03-10T02:46:28.789Z,94.57
2023-03-10T02:47:30.855Z,94.39
2023-03-10T02:48:35.779Z,94.86
2023-03-10T02:49:40.534Z,94.85
2023-03-10T02:50:44.984Z,95.01
2023-03-10T02:51:47.511Z,94.20
2023-03-10T02:52:57.013Z,94.09
2023-03-10T02:54:00.326Z,93.91
2023-03-10T02:55:03.556Z,93.73
2023-03-10T02:56:05.821Z,93.88
2023-03-10T02:57:10.652Z,93.14
2023-03-10T02:58:14.884Z,93.87
2023-03-10T02:59:17.802Z,93.46
2023-03-10T03:00:23.995Z,93.69
2023-03-10T03:01:27.215Z,93.46
2023-03-10T03:02:31.131Z,93.80
2023-03-10T03:03:34.412Z,93.85
2023-03-10T03:04:36.290Z,93.86
2023-03-10T03:05:39.834Z,93.68
2023-03-10T03:06:41.704Z,93.71
2023-03-10T03:07:44.681Z,94.06
2023-03-10T03:08:46.633Z,94.16
2023-03-10T03:09:52.490Z,94.26
2023-03-10T03:10:54.777Z,93.66
2023-03-10T03:11:57.623Z,93.56
2023-03-10T03:12:59.757Z,93.19
2023-03-10T03:14:04.603Z,92.87
2023-03-10T03:15:08.271Z,92.81
2023-03-10T03:16:11.525Z,93.23
2023-03-10T03:17:14.567Z,92.73
2023-03-10T03:18:17.431Z,92.99
2023-03-10T03:19:19.378Z,93.05
2023-03-10T03:20:22.478Z,92.79
2023-03-10T03:21:27.518Z,92.87
2023-03-10T03:22:31.661Z,92.54
2023-03-10T03:23:35.086Z,91.84
2023-03-10T03:24:37.478Z,92.29
2023-03-10T03:25:42.305Z,91.83
2023-03-10T03:26:47.964Z,91.91
2023-03-10T03:27:54.055Z,92.07
2023-03-10T03:28:57.240Z,91.77
2023-03-10T03:30:05.752Z,91.95
2023-03-10T03:31:08.473Z,91.83
2023-03-10T03:32:11.546Z,91.86
2023-03-10T03:33:13.709Z,91.66
2023-03-10T03:34:18.088Z,91.56
2023-03-10T03:35:24.580Z,91.66
2023-03-10T03:36:27.593Z,91.55
2023-03-10T03:37:29.884Z,91.71
2023-03-10T03:38:32.756Z,92.03
2023-03-10T03:39:35.314Z,92.30
2023-03-10T03:40:44.972Z,92.34
2023-03-10T03:41:49.142Z,92.37
2023-03-10T03:42:54.060Z,92.58
2023-03-10T03:43:56.224Z,92.74
2023-03-10T03:44:58.987Z,92.26
2023-03-10T03:46:02.495Z,92.12
2023-03-10T03:47:08.781Z,91.75
2023-03-10T03:48:12.992Z,91.47
2023-03-10T03:49:16.864Z,91.28
2023-03-10T03:50:21.269Z,91.01
2023-03-10T03:51:24.921Z,91.05
2023-03-10T03:52:27.485Z,90.78
2023-03-10T03:53:32.318Z,90.73
2023-03-10T03:54:34.376Z,91.38
2023-03-10T03:55:37.261Z,91.75
2023-03-10T03:56:39.806Z,91.96
2023-03-10T03:57:44.854Z,92.01
2023-03-10T03:58:46.747Z,92.01
2023-03-10T03:59:50.198Z,91.98
2023-03-10T04:00:52.454Z,91.73
2023-03-10T04:01:57.167Z,91.26
2023-03-10T04:02:59.721Z,90.36
2023-03-10T04:04:03.992Z,90.67
2023-03-10T04:05:07.866Z,90.72
2023-03-10T04:06:11.163Z,91.11
2023-03-10T04:07:13.816Z,91.20
2023-03-10T04:08:16.942Z,90.88
2023-03-10T04:09:18.748Z,90.59
2023-03-10T04:10:23.606Z,91.13
2023-03-10T04:11:25.963Z,90.71
2023-03-10T04:12:29.580Z,90.75
2023-03-10T04:13:32.463Z,91.55
2023-03-10T04:14:35.345Z,91.22
2023-03-10T04:15:38.199Z,91.30
2023-03-10T04:16:40.024Z,91.04
2023-03-10T04:17:44.820Z,90.62
2023-03-10T04:18:46.748Z,91.19
2023-03-10T04:20:06.260Z,91.16
2023-03-10T04:21:09.823Z,91.64
2023-03-10T04:22:13.122Z,91.16
2023-03-10T04:23:15.633Z,90.95
2023-03-10T04:24:18.495Z,90.81
2023-03-10T04:25:20.611Z,90.63
2023-03-10T04:26:23.840Z,90.45
2023-03-10T04:27:25.931Z,90.50
2023-03-10T04:28:29.533Z,90.69
2023-03-10T04:29:31.487Z,91.07
2023-03-10T04:30:35.662Z,91.08
2023-03-10T04:31:38.144Z,91.20
2023-03-10T04:32:44.006Z,90.86
2023-03-10T04:33:46.023Z,91.01
2023-03-10T04:34:49.988Z,90.80
2023-03-10T04:35:53.589Z,91.04
2023-03-10T04:36:58.189Z,90.71
2023-03-10T04:38:00.117Z,90.94
2023-03-10T04:39:05.028Z,91.02
2023-03-10T04:40:10.237Z,91.12
2023-03-10T04:41:13.345Z,90.87
2023-03-10T04:42:18.769Z,90.84
2023-03-10T04:43:22.013Z,91.16
2023-03-10T04:44:30.945Z,91.56
2023-03-10T04:45:35.716Z,91.64
2023-03-10T04:46:38.333Z,92.24
2023-03-10T04:47:43.942Z,92.45
2023-03-10T04:48:46.454Z,92.46
2023-03-10T04:49:50.349Z,92.97
2023-03-10T04:50:55.837Z,92.85
2023-03-10T04:51:59.218Z,92.96
2023-03-10T04:53:02.463Z,93.18
2023-03-10T04:54:05.992Z,93.30
2023-03-10T04:55:09.697Z,93.13
2023-03-10T04:56:11.859Z,93.40
2023-03-10T04:57:16.262Z,93.18
2023-03-10T04:58:19.396Z,93.16
2023-03-10T04:59:22.343Z,92.71
2023-03-10T05:00:24.649Z,92.82
2023-03-10T05:01:32.883Z,92.33
2023-03-10T05:02:38.936Z,91.75
2023-03-10T05:03:43.047Z,91.71
2023-03-10T05:04:45.861Z,91.69
2023-03-10T05:05:48.761Z,91.14
2023-03-10T05:06:50.903Z,91.41
2023-03-10T05:07:59.135Z,91.60
2023-03-10T05:09:04.121Z,92.37
2023-03-10T05:10:08.691Z,91.82
2023-03-10T05:11:11.249Z,92.28
2023-03-10T05:12:14.309Z,92.42
2023-03-10T05:13:16.845Z,92.32
2023-03-10T05:14:20.224Z,92.51
2023-03-10T05:15:23.625Z,92.76
2023-03-10T05:16:26.607Z,92.85
2023-03-10T05:17:30.185Z,92.60
2023-03-10T05:18:33.635Z,92.14
2023-03-10T05:19:38.209Z,91.94
2023-03-10T05:20:40.372Z,92.28
2023-03-10T05:21:43.369Z,92.12
2023-03-10T05:22:46.420Z,92.80
2023-03-10T05:23:48.692Z,92.57
2023-03-10T05:24:52.206Z,92.69
2023-03-10T05:25:53.980Z,92.66
2023-03-10T05:26:58.418Z,92.66
2023-03-10T05:28:00.496Z,92.55
2023-03-10T05:29:06.183Z,92.83
2023-03-10T05:30:22.959Z,93.06
2023-03-10T05:31:28.611Z,93.56
2023-03-10T05:32:38.564Z,93.32
2023-03-10T05:33:40.869Z,93.53
2023-03-10T05:34:45.429Z,93.41
2023-03-10T05:35:47.677Z,93.65
2023-03-10T05:36:50.550Z,93.63
2023-03-10T05:37:52.770Z,93.71
2023-03-10T05:38:55.562Z,94.27
2023-03-10T05:39:59.216Z,93.74
2023-03-10T05:41:02.192Z,93.89
2023-03-10T05:42:05.432Z,94.06
2023-03-10T05:43:09.362Z,94.12
2023-03-10T05:44:12.307Z,93.81
2023-03-10T05:45:15.496Z,93.76
2023-03-10T05:46:19.036Z,93.24
2023-03-10T05:47:26.869Z,93.04
2023-03-10T05:48:29.934Z,93.18
2023-03-10T05:49:33.404Z,93.09
2023-03-10T05:50:37.685Z,93.46
2023-03-10T05:51:39.503Z,94.13
2023-03-10T05:52:43.793Z,94.29
2023-03-10T05:53:46.589Z,95.17
2023-03-10T05:54:54.102Z,94.89
2023-03-10T05:55:56.920Z,94.40
2023-03-10T05:56:59.681Z,94.89
2023-03-10T05:58:03.377Z,94.77
2023-03-10T05:59:06.848Z,95.14
2023-03-10T06:00:12.852Z,95.32
2023-03-10T06:01:22.987Z,95.62
2023-03-10T06:02:24.845Z,95.69
2023-03-10T06:03:29.886Z,96.22
2023-03-10T06:04:33.262Z,96.80
2023-03-10T06:05:37.440Z,97.01
2023-03-10T06:06:40.760Z,97.24
2023-03-10T06:07:42.961Z,97.46
2023-03-10T06:08:45.885Z,97.91
2023-03-10T06:09:48.021Z,98.33
2023-03-10T06:10:51.027Z,98.16
2023-03-10T06:11:52.989Z,98.40
2023-03-10T06:12:56.384Z,98.13
2023-03-10T06:13:58.206Z,98.76
2023-03-10T06:15:01.260Z,98.94
2023-03-10T06:16:05.611Z,98.80
2023-03-10T06:17:08.762Z,99.19
2023-03-10T06:18:10.582Z,99.53
2023-03-10T06:19:13.448Z,100.00
2023-03-10T06:20:15.747Z,99.61
2023-03-10T06:21:19.825Z,98.63
2023-03-10T06:22:22.036Z,99.02
2023-03-10T06:23:25.367Z,99.43
2023-03-10T06:24:28.935Z,100.00
2023-03-10T06:25:31.857Z,100.00
2023-03-10T06:26:33.607Z,100.00
2023-03-10T06:27:36.398Z,100.00
2023-03-10T06:28:40.768Z,100.00
2023-03-10T06:29:42.615Z,100.00
2023-03-10T06:30:45.385Z,100.00
2023-03-10T06:31:47.630Z,100.00
2023-03-10T06:32:50.583Z,100.00
2023-03-10T06:33:52.834Z,100.00
2023-03-10T06:34:55.666Z,100.00
2023-03-10T06:35:57.825Z,100.00
2023-03-10T06:37:01.997Z,100.00
2023-03-10T06:38:03.917Z,99.56
2023-03-10T06:39:06.931Z,99.86
2023-03-10T06:40:12.732Z,100.00
2023-03-10T06:41:16.359Z,100.00
2023-03-10T06:42:18.115Z,100.00
2023-03-10T06:43:20.984Z,100.00
2023-03-10T06:44:22.821Z,100.00
2023-03-10T06:45:25.542Z,100.00
2023-03-10T06:46:27.373Z,100.00
2023-03-10T06:47:30.160Z,100.00
2023-03-10T06:48:32.169Z,100.00
2023-03-10T06:49:35.350Z,100.00
2023-03-10T06:50:41.676Z,100.00
2023-03-10T06:51:43.446Z,99.74
2023-03-10T06:52:47.521Z,99.68
2023-03-10T06:53:50.908Z,99.08
2023-03-10T06:54:52.714Z,98.53
2023-03-10T06:55:59.717Z,98.66
2023-03-10T06:57:02.565Z,98.41
2023-03-10T06:58:05.285Z,98.46
2023-03-10T06:59:07.356Z,98.45
2023-03-10T07:00:15.567Z,98.27
2023-03-10T07:01:23.169Z,98.21
2023-03-10T07:02:25.970Z,98.66
2023-03-10T07:03:28.915Z,98.60
2023-03-10T07:04:31.754Z,98.97
2023-03-10T07:05:33.565Z,98.40
2023-03-10T07:06:36.383Z,98.96
2023-03-10T07:07:38.137Z,98.80
2023-03-10T07:08:42.205Z,98.39
2023-03-10T07:09:44.207Z,97.42
2023-03-10T07:10:46.956Z,96.54
2023-03-10T07:11:49.673Z,95.97
2023-03-10T07:12:55.149Z,95.84
2023-03-10T07:13:58.350Z,95.43
2023-03-10T07:15:00.532Z,96.31
2023-03-10T07:16:03.950Z,94.05
2023-03-10T07:17:05.821Z,92.77
2023-03-10T07:18:08.886Z,90.60
2023-03-10T07:19:11.628Z,88.93
2023-03-10T07:20:13.990Z,89.92
2023-03-10T07:21:18.674Z,87.44
2023-03-10T07:22:20.519Z,89.85
2023-03-10T07:23:23.498Z,88.90
2023-03-10T07:24:27.802Z,87.21
2023-03-10T07:25:29.835Z,87.92
2023-03-10T07:26:33.554Z,87.48
2023-03-10T07:27:35.340Z,86.85
2023-03-10T07:28:38.854Z,86.01
2023-03-10T07:29:40.628Z,84.25
2023-03-10T07:30:43.545Z,82.96
2023-03-10T07:31:45.655Z,84.80
2023-03-10T07:32:48.450Z,83.39
2023-03-10T07:33:51.405Z,82.70
2023-03-10T07:34:53.256Z,83.00
2023-03-10T07:35:56.200Z,80.38
2023-03-10T07:36:58.963Z,80.79
2023-03-10T07:38:00.932Z,80.52
2023-03-10T07:39:03.992Z,79.09
2023-03-10T07:40:10.581Z,76.92
2023-03-10T07:41:15.615Z,77.37
2023-03-10T07:42:18.323Z,76.62
2023-03-10T07:43:20.116Z,77.75
2023-03-10T07:44:23.218Z,76.90
2023-03-10T07:45:25.793Z,75.59
2023-03-10T07:46:29.096Z,75.03
2023-03-10T07:47:31.552Z,75.87
2023-03-10T07:48:34.477Z,76.08
2023-03-10T07:49:36.284Z,74.36
2023-03-10T07:50:39.188Z,75.27
2023-03-10T07:51:41.197Z,74.46
2023-03-10T07:52:43.976Z,75.67
2023-03-10T07:53:45.927Z,76.14
2023-03-10T07:54:49.217Z,74.21
2023-03-10T07:55:53.370Z,74.71
2023-03-10T07:56:56.577Z,75.34
2023-03-10T07:58:00.294Z,73.70
2023-03-10T07:59:03.106Z,74.23
2023-03-10T08:00:06.273Z,73.75
2023-03-10T08:01:17.116Z,72.83
2023-03-10T08:02:19.987Z,74.05
2023-03-10T08:03:23.170Z,73.05
2023-03-10T08:04:26.091Z,72.23
2023-03-10T08:05:28.025Z,71.75
2023-03-10T08:06:32.674Z,71.66
2023-03-10T08:07:34.763Z,71.84
2023-03-10T08:08:37.491Z,71.30
2023-03-10T08:09:39.411Z,71.61
2023-03-10T08:10:42.535Z,70.45
2023-03-10T08:11:45.647Z,70.95
2023-03-10T08:12:48.467Z,70.49
2023-03-10T08:13:50.530Z,69.96
2023-03-10T08:14:53.372Z,68.92
2023-03-10T08:15:55.376Z,69.92
2023-03-10T08:16:58.633Z,69.85
2023-03-10T08:18:05.197Z,69.87
2023-03-10T08:19:08.630Z,67.80
2023-03-10T08:20:12.496Z,68.97
2023-03-10T08:21:14.297Z,67.70
2023-03-10T08:22:17.203Z,69.18
2023-03-10T08:23:19.034Z,69.14
2023-03-10T08:24:21.763Z,67.97
2023-03-10T08:25:24.058Z,68.86
2023-03-10T08:26:26.817Z,67.82
2023-03-10T08:27:30.154Z,68.39
2023-03-10T08:28:35.194Z,69.09
2023-03-10T08:29:37.013Z,68.88
2023-03-10T08:30:53.239Z,68.64
2023-03-10T08:32:03.291Z,68.44
2023-03-10T08:33:07.645Z,68.71
2023-03-10T08:34:09.626Z,68.57
2023-03-10T08:35:13.019Z,68.69
2023-03-10T08:36:18.037Z,69.38
2023-03-10T08:37:20.820Z,69.58
2023-03-10T08:38:22.680Z,68.27
2023-03-10T08:39:27.608Z,68.20
2023-03-10T08:40:29.685Z,68.39
2023-03-10T08:41:36.194Z,68.20
2023-03-10T08:42:39.474Z,67.41
2023-03-10T08:43:42.829Z,67.79
2023-03-10T08:44:45.791Z,68.49
2023-03-10T08:45:47.579Z,68.30
2023-03-10T08:46:50.896Z,67.59
2023-03-10T08:47:52.811Z,65.94
2023-03-10T08:48:55.848Z,66.30
2023-03-10T08:49:58.016Z,65.31
2023-03-10T08:51:01.257Z,65.68
2023-03-10T08:52:04.124Z,66.05
2023-03-10T08:53:06.129Z,66.95
2023-03-10T08:54:09.637Z,66.48
2023-03-10T08:55:12.289Z,65.80
2023-03-10T08:56:15.469Z,65.17
2023-03-10T08:57:18.484Z,65.47
2023-03-10T08:58:23.010Z,65.90
2023-03-10T08:59:25.773Z,65.50
2023-03-10T09:00:28.261Z,65.34
2023-03-10T09:01:33.114Z,64.46
2023-03-10T09:02:35.074Z,64.96
2023-03-10T09:03:39.609Z,65.04
2023-03-10T09:04:41.558Z,64.72
2023-03-10T09:05:44.880Z,64.77
2023-03-10T09:06:47.150Z,64.15
2023-03-10T09:07:49.892Z,64.46
2023-03-10T09:08:52.032Z,64.38
2023-03-10T09:09:54.830Z,63.92
2023-03-10T09:10:57.776Z,64.21
2023-03-10T09:11:59.702Z,64.65
2023-03-10T09:13:13.384Z,64.50
2023-03-10T09:14:17.362Z,61.66
2023-03-10T09:15:20.241Z,62.62
2023-03-10T09:16:22.388Z,60.60
2023-03-10T09:17:25.231Z,63.24
2023-03-10T09:18:28.575Z,63.54
2023-03-10T09:19:31.395Z,63.55
2023-03-10T09:20:34.100Z,63.01
2023-03-10T09:21:36.101Z,62.54
2023-03-10T09:22:39.028Z,62.52
2023-03-10T09:23:43.378Z,61.51
2023-03-10T09:24:46.149Z,61.69
2023-03-10T09:25:47.966Z,61.89
2023-03-10T09:26:50.802Z,61.16
2023-03-10T09:27:52.580Z,59.11
2023-03-10T09:28:57.152Z,60.63
2023-03-10T09:30:01.795Z,60.38
2023-03-10T09:31:04.219Z,60.31
2023-03-10T09:32:09.089Z,59.63
2023-03-10T09:33:16.557Z,60.27
2023-03-10T09:34:19.327Z,60.30
2023-03-10T09:35:21.812Z,60.56
2023-03-10T09:36:24.726Z,60.98
2023-03-10T09:37:26.567Z,61.28
2023-03-10T09:38:29.988Z,60.02
2023-03-10T09:39:34.686Z,60.38
2023-03-10T09:40:37.456Z,60.19
2023-03-10T09:42:00.795Z,59.49
2023-03-10T09:43:05.334Z,60.39
2023-03-10T09:44:17.509Z,58.25
2023-03-10T09:45:30.526Z,55.35
2023-03-10T09:46:36.882Z,56.91
2023-03-10T09:47:46.177Z,57.55
2023-03-10T09:48:52.163Z,58.01
2023-03-10T09:50:02.156Z,56.73
2023-03-10T09:51:09.627Z,57.77
2023-03-10T09:52:19.910Z,56.25
2023-03-10T09:53:42.652Z,53.81
2023-03-10T09:54:51.990Z,54.68
2023-03-10T09:55:55.018Z,55.39
2023-03-10T09:56:59.923Z,55.09
2023-03-10T09:58:04.026Z,56.18
2023-03-10T09:59:11.190Z,55.25
2023-03-10T10:00:21.796Z,55.71
2023-03-10T10:01:28.150Z,55.75
2023-03-10T10:02:32.711Z,55.28
2023-03-10T10:03:51.549Z,56.18
2023-03-10T10:04:57.342Z,55.39
2023-03-10T10:05:59.715Z,56.09
2023-03-10T10:07:03.813Z,55.97
2023-03-10T10:08:15.966Z,55.34
2023-03-10T10:09:26.319Z,54.20
2023-03-10T10:10:29.432Z,54.58
2023-03-10T10:11:33.585Z,55.17
2023-03-10T10:12:36.041Z,56.39
2023-03-10T10:13:41.729Z,55.93
2023-03-10T10:14:56.569Z,56.11
2023-03-10T10:16:24.754Z,55.08
2023-03-10T10:17:39.239Z,54.95
2023-03-10T10:18:47.999Z,55.53
2023-03-10T10:19:50.191Z,55.32
2023-03-10T10:20:58.975Z,55.55
2023-03-10T10:22:04.591Z,55.74
2023-03-10T10:23:16.364Z,55.41
2023-03-10T10:24:19.678Z,56.20
2023-03-10T10:25:22.981Z,55.67
2023-03-10T10:26:27.427Z,56.39
2023-03-10T10:27:31.325Z,55.87
2023-03-10T10:28:41.765Z,55.71
2023-03-10T10:29:47.096Z,55.23
2023-03-10T10:30:49.630Z,55.37
2023-03-10T10:32:10.509Z,53.36
2023-03-10T10:33:14.711Z,55.17
2023-03-10T10:34:23.956Z,55.37
2023-03-10T10:35:27.287Z,55.99
2023-03-10T10:36:31.837Z,55.64
2023-03-10T10:37:38.796Z,56.42
2023-03-10T10:38:49.583Z,56.25
2023-03-10T10:39:53.674Z,53.55
2023-03-10T10:41:01.941Z,53.72
2023-03-10T10:42:15.597Z,54.82
2023-03-10T10:43:19.574Z,55.29
2023-03-10T10:44:21.586Z,54.74
2023-03-10T10:45:27.009Z,54.76
2023-03-10T10:46:30.822Z,53.78
2023-03-10T10:47:34.381Z,51.87
2023-03-10T10:48:43.077Z,53.41
2023-03-10T10:49:45.092Z,53.54
2023-03-10T10:50:54.153Z,53.10
2023-03-10T10:51:58.128Z,53.45
2023-03-10T10:53:19.807Z,52.26
2023-03-10T10:54:28.292Z,52.63
2023-03-10T10:55:34.373Z,53.45
2023-03-10T10:56:37.232Z,53.83
2023-03-10T10:57:46.265Z,53.82
2023-03-10T10:59:02.821Z,51.79
2023-03-10T11:00:18.441Z,50.84
2023-03-10T11:01:21.294Z,51.56
2023-03-10T11:02:25.438Z,51.37
2023-03-10T11:03:33.107Z,52.06
2023-03-10T11:04:44.991Z,50.71
2023-03-10T11:05:46.776Z,50.92
2023-03-10T11:06:49.739Z,51.82
2023-03-10T11:07:52.357Z,51.49
2023-03-10T11:09:05.695Z,51.15
2023-03-10T11:10:13.794Z,51.67
2023-03-10T11:11:22.524Z,52.01
2023-03-10T11:12:28.620Z,52.70
2023-03-10T11:13:35.649Z,52.87
2023-03-10T11:14:49.348Z,51.88
2023-03-10T11:15:53.364Z,52.42
2023-03-10T11:17:00.507Z,51.80
2023-03-10T11:18:08.930Z,51.79
2023-03-10T11:19:16.766Z,52.58
2023-03-10T11:20:26.801Z,50.45
2023-03-10T11:21:30.500Z,50.98
2023-03-10T11:22:38.993Z,51.02
2023-03-10T11:23:46.355Z,51.03
2023-03-10T11:24:53.452Z,52.27
2023-03-10T11:26:00.014Z,51.73
2023-03-10T11:27:08.071Z,51.86
2023-03-10T11:28:21.683Z,51.98
2023-03-10T11:29:31.764Z,52.93
2023-03-10T11:30:38.146Z,52.78
2023-03-10T11:31:45.007Z,53.16
2023-03-10T11:32:58.826Z,53.27
2023-03-10T11:34:19.716Z,52.80
2023-03-10T11:35:27.780Z,52.30
2023-03-10T11:36:49.631Z,51.83
2023-03-10T11:38:04.612Z,51.95
2023-03-10T11:39:11.562Z,52.19
2023-03-10T11:40:19.910Z,52.21
2023-03-10T11:41:25.892Z,51.94
2023-03-10T11:42:33.306Z,51.64
2023-03-10T11:43:42.996Z,51.85
2023-03-10T11:44:52.329Z,51.42
2023-03-10T11:45:55.512Z,51.16
2023-03-10T11:47:02.019Z,50.63
2023-03-10T11:48:34.634Z,48.63
2023-03-10T11:49:40.156Z,50.65
2023-03-10T11:50:50.865Z,48.37
2023-03-10T11:51:57.259Z,49.63
2023-03-10T11:53:03.396Z,48.71
2023-03-10T11:54:11.836Z,48.71
2023-03-10T11:55:18.838Z,49.55
2023-03-10T11:56:22.652Z,49.77
2023-03-10T11:57:26.793Z,50.19
2023-03-10T11:58:40.756Z,50.53
2023-03-10T11:59:48.874Z,50.97
2023-03-10T12:00:53.720Z,51.08
2023-03-10T12:01:59.298Z,51.51
2023-03-10T12:03:10.946Z,51.98
2023-03-10T12:04:16.685Z,52.14
2023-03-10T12:05:21.602Z,52.70
2023-03-10T12:06:30.460Z,52.96
2023-03-10T12:07:34.435Z,53.34
2023-03-10T12:08:37.358Z,53.36
2023-03-10T12:09:42.343Z,53.62
2023-03-10T12:10:44.412Z,54.09
2023-03-10T12:11:47.350Z,54.11
2023-03-10T12:12:51.059Z,54.34
2023-03-10T12:13:58.138Z,54.34
2023-03-10T12:15:01.653Z,54.72
2023-03-10T12:16:05.366Z,55.26
2023-03-10T12:17:11.696Z,55.79
2023-03-10T12:18:13.530Z,55.98
2023-03-10T12:19:16.394Z,56.40
2023-03-10T12:20:27.206Z,56.55
2023-03-10T12:21:32.465Z,57.06
2023-03-10T12:22:37.217Z,57.19
2023-03-10T12:23:42.153Z,57.51
2023-03-10T12:24:46.683Z,57.60
2023-03-10T12:25:49.927Z,57.39
2023-03-10T12:27:00.725Z,57.76
2023-03-10T12:28:14.343Z,57.94
2023-03-10T12:29:37.545Z,58.06
2023-03-10T12:30:47.524Z,58.09
2023-03-10T12:31:51.461Z,58.52
2023-03-10T12:32:53.472Z,58.91
2023-03-10T12:34:14.484Z,58.72
2023-03-10T12:35:36.691Z,58.92
2023-03-10T12:36:41.761Z,58.74
2023-03-10T12:37:43.582Z,58.98
2023-03-10T12:38:48.876Z,58.46
2023-03-10T12:39:51.636Z,58.36
2023-03-10T12:40:53.562Z,58.80
2023-03-10T12:41:57.257Z,58.61
2023-03-10T12:42:59.028Z,58.59
2023-03-10T12:44:02.545Z,57.99
2023-03-10T12:45:17.348Z,58.34
2023-03-10T12:46:23.521Z,58.52
2023-03-10T12:47:33.720Z,58.43
2023-03-10T12:48:41.314Z,58.45
2023-03-10T12:49:48.936Z,58.35
2023-03-10T12:50:54.654Z,58.33
2023-03-10T12:52:11.733Z,58.42
2023-03-10T12:53:26.608Z,58.44
2023-03-10T12:54:37.916Z,58.76
2023-03-10T12:55:43.492Z,59.38
2023-03-10T12:56:57.738Z,59.60
2023-03-10T12:58:24.518Z,59.60
2023-03-10T12:59:29.675Z,59.53
2023-03-10T13:00:41.988Z,60.20
2023-03-10T13:01:55.632Z,59.93
2023-03-10T13:03:02.691Z,60.31
2023-03-10T13:04:06.136Z,60.13
2023-03-10T13:05:20.352Z,60.01
2023-03-10T13:06:25.301Z,60.38
2023-03-10T13:07:29.629Z,60.63
2023-03-10T13:08:41.475Z,60.55
2023-03-10T13:09:47.201Z,60.43
2023-03-10T13:10:53.341Z,60.77
2023-03-10T13:11:58.995Z,60.78
2023-03-10T13:13:02.402Z,60.99
2023-03-10T13:14:10.595Z,61.00
2023-03-10T13:15:22.405Z,61.44
2023-03-10T13:16:26.724Z,61.62
2023-03-10T13:17:30.490Z,60.51
2023-03-10T13:18:33.968Z,59.43
2023-03-10T13:19:37.051Z,58.44
2023-03-10T13:20:40.076Z,58.40
2023-03-10T13:21:45.331Z,56.30
2023-03-10T13:22:56.904Z,56.52
2023-03-10T13:23:59.558Z,56.33
2023-03-10T13:25:04.251Z,55.83
2023-03-10T13:26:08.293Z,54.85
2023-03-10T13:27:14.483Z,56.02
2023-03-10T13:28:17.248Z,55.29
2023-03-10T13:29:20.040Z,55.09
2023-03-10T13:30:24.426Z,54.63
2023-03-10T13:31:27.903Z,54.70
2023-03-10T13:32:31.567Z,54.36
2023-03-10T13:33:42.964Z,53.65
2023-03-10T13:34:49.835Z,54.35
2023-03-10T13:35:52.621Z,51.72
2023-03-10T13:37:02.272Z,51.25
2023-03-10T13:38:08.077Z,51.10
2023-03-10T13:39:15.823Z,52.00
2023-03-10T13:40:18.914Z,51.70
2023-03-10T13:41:21.785Z,52.55
2023-03-10T13:42:40.889Z,51.76
2023-03-10T13:43:48.454Z,52.56
2023-03-10T13:44:51.770Z,52.94
2023-03-10T13:45:55.213Z,51.84
2023-03-10T13:47:00.544Z,52.16
2023-03-10T13:48:04.051Z,52.83
2023-03-10T13:49:07.692Z,52.73
2023-03-10T13:50:14.518Z,52.78
2023-03-10T13:51:20.434Z,52.00
2023-03-10T13:52:24.785Z,51.12
2023-03-10T13:53:28.079Z,51.97